createdAt,value
2023-11-18T00:00:50.416Z,0.40
2023-11-18T00:03:40.790Z,0.38
2023-11-18T00:06:29.304Z,0.30
2023-11-18T00:09:17.375Z,0.60
2023-11-18T00:12:06.265Z,0.60
2023-11-18T00:14:54.259Z,0.43
2023-11-18T00:17:42.414Z,0.45
2023-11-18T00:20:33.403Z,0.40
2023-11-18T00:23:22.418Z,0.60
2023-11-18T00:26:11.449Z,0.30
2023-11-18T00:29:00.514Z,0.50
2023-11-18T00:31:48.686Z,0.57
2023-11-18T00:34:36.836Z,0.50
2023-11-18T00:37:26.227Z,0.53
2023-11-18T00:40:14.337Z,0.50
2023-11-18T00:43:03.636Z,0.55
2023-11-18T00:45:52.397Z,0.50
2023-11-18T00:48:40.473Z,0.40
2023-11-18T00:51:28.621Z,0.60
2023-11-18T00:54:17.901Z,0.40
2023-11-18T00:57:06.202Z,0.43
2023-11-18T00:59:54.476Z,0.50
2023-11-18T01:02:42.524Z,0.40
2023-11-18T01:05:32.789Z,0.50
2023-11-18T01:08:20.811Z,0.40
2023-11-18T01:11:10.262Z,0.35
2023-11-18T01:13:58.359Z,0.35
2023-11-18T01:16:46.520Z,0.70
2023-11-18T01:19:35.025Z,0.30
2023-11-18T01:22:23.361Z,0.45
2023-11-18T01:25:11.400Z,0.30
2023-11-18T01:28:01.011Z,0.28
2023-11-18T01:30:49.156Z,0.30
2023-11-18T01:33:38.149Z,0.50
2023-11-18T01:36:26.137Z,0.32
2023-11-18T01:39:14.880Z,0.40
2023-11-18T01:42:04.395Z,0.30
2023-11-18T01:44:53.900Z,0.30
2023-11-18T01:47:42.286Z,0.40
2023-11-18T01:50:31.073Z,0.30
2023-11-18T01:53:19.654Z,0.40
2023-11-18T01:56:09.738Z,0.60
2023-11-18T01:59:00.001Z,0.50
2023-11-18T02:01:52.421Z,0.53
2023-11-18T02:04:40.841Z,0.50
2023-11-18T02:07:29.627Z,0.60
2023-11-18T02:10:18.796Z,0.40
2023-11-18T02:13:14.985Z,0.40
2023-11-18T02:16:06.236Z,0.40
2023-11-18T02:18:56.222Z,0.43
2023-11-18T02:21:46.606Z,0.50
2023-11-18T02:24:37.928Z,0.50
2023-11-18T02:27:28.098Z,0.50
2023-11-18T02:30:18.194Z,0.30
2023-11-18T02:33:16.142Z,0.40
2023-11-18T02:36:11.501Z,0.40
2023-11-18T02:39:02.010Z,0.50
2023-11-18T02:41:54.383Z,0.40
2023-11-18T02:44:45.804Z,0.40
2023-11-18T02:47:34.065Z,0.35
2023-11-18T02:50:22.160Z,0.40
2023-11-18T02:53:10.579Z,0.52
2023-11-18T02:56:03.719Z,0.35
2023-11-18T02:58:51.760Z,0.50
2023-11-18T03:01:42.213Z,0.50
2023-11-18T03:04:30.269Z,0.40
2023-11-18T03:07:18.546Z,0.40
2023-11-18T03:10:11.907Z,0.40
2023-11-18T03:13:00.065Z,0.70
2023-11-18T03:15:49.275Z,0.70
2023-11-18T03:18:39.421Z,0.63
2023-11-18T03:21:28.316Z,0.70
2023-11-18T03:24:17.579Z,0.60
2023-11-18T03:27:05.992Z,0.50
2023-11-18T03:29:54.159Z,0.60
2023-11-18T03:32:42.414Z,0.60
2023-11-18T03:35:32.437Z,0.60
2023-11-18T03:38:20.811Z,0.60
2023-11-18T03:41:09.756Z,0.60
2023-11-18T03:43:57.898Z,0.52
2023-11-18T03:46:45.946Z,0.50
2023-11-18T03:49:34.119Z,0.50
2023-11-18T03:52:23.538Z,0.40
2023-11-18T03:55:11.851Z,0.60
2023-11-18T03:57:59.893Z,0.68
2023-11-18T04:00:48.088Z,0.50
2023-11-18T04:03:37.214Z,0.60
2023-11-18T04:06:25.677Z,0.60
2023-11-18T04:09:15.556Z,0.50
2023-11-18T04:12:04.314Z,0.50
2023-11-18T04:14:52.298Z,0.32
2023-11-18T04:17:41.282Z,0.50
2023-11-18T04:20:29.557Z,0.47
2023-11-18T04:23:17.753Z,0.50
2023-11-18T04:26:08.340Z,0.40
2023-11-18T04:28:56.563Z,0.40
2023-11-18T04:31:44.678Z,0.50
2023-11-18T04:34:33.945Z,0.60
2023-11-18T04:37:22.066Z,0.60
2023-11-18T04:40:12.047Z,0.30
2023-11-18T04:43:01.653Z,0.40
2023-11-18T04:45:49.681Z,0.55
2023-11-18T04:48:41.583Z,0.50
2023-11-18T04:51:31.540Z,0.30
2023-11-18T04:54:20.520Z,0.40
2023-11-18T04:57:10.112Z,0.60
2023-11-18T04:59:59.552Z,0.50
2023-11-18T05:02:49.328Z,0.50
2023-11-18T05:05:39.397Z,0.50
2023-11-18T05:08:27.736Z,0.50
2023-11-18T05:11:16.113Z,0.60
2023-11-18T05:14:05.345Z,0.55
2023-11-18T05:16:55.021Z,0.40
2023-11-18T05:19:44.284Z,0.50
2023-11-18T05:22:32.354Z,0.60
2023-11-18T05:25:20.506Z,0.52
2023-11-18T05:28:09.600Z,0.50
2023-11-18T05:30:59.263Z,0.55
2023-11-18T05:33:52.885Z,0.60
2023-11-18T05:36:41.439Z,0.55
2023-11-18T05:39:32.496Z,0.50
2023-11-18T05:42:20.533Z,0.65
2023-11-18T05:45:12.083Z,0.60
2023-11-18T05:48:00.299Z,0.40
2023-11-18T05:50:49.708Z,0.68
2023-11-18T05:53:42.218Z,0.70
2023-11-18T05:56:30.410Z,0.50
2023-11-18T05:59:18.644Z,0.57
2023-11-18T06:02:06.743Z,0.60
2023-11-18T06:04:55.805Z,0.55
2023-11-18T06:07:45.310Z,0.55
2023-11-18T06:10:34.042Z,0.60
2023-11-18T06:13:22.518Z,0.60
2023-11-18T06:16:15.427Z,0.60
2023-11-18T06:19:06.088Z,0.60
2023-11-18T06:21:54.158Z,0.55
2023-11-18T06:24:43.981Z,0.50
2023-11-18T06:27:32.134Z,0.45
2023-11-18T06:30:20.901Z,0.70
2023-11-18T06:33:09.232Z,0.60
2023-11-18T06:35:57.477Z,0.60
2023-11-18T06:38:45.933Z,0.50
2023-11-18T06:41:35.967Z,0.50
2023-11-18T06:44:25.362Z,0.50
2023-11-18T06:47:13.831Z,0.60
2023-11-18T06:50:02.105Z,0.70
2023-11-18T06:52:52.115Z,0.70
2023-11-18T06:55:40.508Z,0.60
2023-11-18T06:58:29.807Z,0.50
2023-11-18T07:01:18.168Z,0.50
2023-11-18T07:04:09.552Z,0.50
2023-11-18T07:06:57.511Z,0.52
2023-11-18T07:09:45.642Z,0.65
2023-11-18T07:12:34.847Z,0.47
2023-11-18T07:15:24.276Z,0.40
2023-11-18T07:18:13.581Z,0.35
2023-11-18T07:21:01.687Z,0.50
2023-11-18T07:23:49.640Z,0.47
2023-11-18T07:26:37.719Z,0.40
2023-11-18T07:29:25.686Z,0.50
2023-11-18T07:32:15.094Z,0.50
2023-11-18T07:35:03.250Z,0.40
2023-11-18T07:37:51.252Z,0.50
2023-11-18T07:40:43.344Z,0.50
2023-11-18T07:43:31.618Z,0.50
2023-11-18T07:46:19.839Z,0.50
2023-11-18T07:49:10.796Z,0.60
2023-11-18T07:51:59.522Z,0.55
2023-11-18T07:54:48.175Z,0.63
2023-11-18T07:57:38.562Z,0.50
2023-11-18T08:00:26.517Z,0.60
2023-11-18T08:03:15.518Z,0.50
2023-11-18T08:06:07.983Z,0.50
2023-11-18T08:08:58.828Z,0.40
2023-11-18T08:11:47.467Z,0.50
2023-11-18T08:14:35.419Z,0.35
2023-11-18T08:17:23.456Z,0.30
2023-11-18T08:20:15.324Z,0.40
2023-11-18T08:23:05.802Z,0.43
2023-11-18T08:25:54.190Z,0.43
2023-11-18T08:28:42.819Z,0.40
2023-11-18T08:31:31.017Z,0.50
2023-11-18T08:34:19.851Z,0.40
2023-11-18T08:37:08.005Z,0.50
2023-11-18T08:39:57.290Z,0.50
2023-11-18T08:42:51.568Z,0.40
2023-11-18T08:45:40.282Z,0.60
2023-11-18T08:48:29.472Z,0.60
2023-11-18T08:51:17.659Z,0.60
2023-11-18T08:54:23.207Z,0.43
2023-11-18T08:57:25.048Z,0.50
2023-11-18T09:00:34.553Z,0.32
2023-11-18T09:03:28.883Z,0.30
2023-11-18T09:06:26.549Z,0.30
2023-11-18T09:09:16.606Z,0.40
2023-11-18T09:12:05.043Z,0.50
2023-11-18T09:14:55.180Z,0.40
2023-11-18T09:17:45.765Z,0.50
2023-11-18T09:20:33.831Z,0.50
2023-11-18T09:23:24.703Z,0.45
2023-11-18T09:26:12.910Z,0.50
2023-11-18T09:29:02.690Z,0.50
2023-11-18T09:31:55.412Z,0.40
2023-11-18T09:34:43.509Z,0.50
2023-11-18T09:37:31.599Z,0.32
2023-11-18T09:40:25.859Z,0.50
2023-11-18T09:43:16.958Z,0.50
2023-11-18T09:46:13.665Z,0.35
2023-11-18T09:49:16.945Z,0.47
2023-11-18T09:52:06.968Z,0.50
2023-11-18T09:55:04.743Z,0.40
2023-11-18T09:57:58.885Z,0.50
2023-11-18T10:00:51.994Z,0.45
2023-11-18T10:03:43.141Z,0.50
2023-11-18T10:06:35.135Z,0.50
2023-11-18T10:09:29.427Z,0.40
2023-11-18T10:12:24.864Z,0.30
2023-11-18T10:15:15.885Z,0.60
2023-11-18T10:18:08.939Z,0.40
2023-11-18T10:20:57.995Z,0.32
2023-11-18T10:24:03.288Z,0.35
2023-11-18T10:26:58.376Z,0.47
2023-11-18T10:29:47.973Z,0.50
2023-11-18T10:32:37.483Z,0.60
2023-11-18T10:35:28.979Z,0.60
2023-11-18T10:38:17.837Z,0.50
2023-11-18T10:41:08.530Z,0.50
2023-11-18T10:44:08.869Z,0.50
2023-11-18T10:46:59.661Z,0.47
2023-11-18T10:49:47.731Z,0.50
2023-11-18T10:52:41.708Z,0.40
2023-11-18T10:55:38.010Z,0.40
2023-11-18T10:58:37.069Z,0.50
2023-11-18T11:01:33.021Z,0.40
2023-11-18T11:04:22.647Z,0.40
2023-11-18T11:07:12.118Z,0.50
2023-11-18T11:10:05.171Z,0.40
2023-11-18T11:12:55.971Z,0.40
2023-11-18T11:15:52.165Z,0.30
2023-11-18T11:18:54.350Z,0.40
2023-11-18T11:21:49.600Z,0.40
2023-11-18T11:24:56.361Z,0.50
2023-11-18T11:27:53.267Z,0.40
2023-11-18T11:30:47.251Z,0.50
2023-11-18T11:33:45.250Z,0.40
2023-11-18T11:36:41.802Z,0.38
2023-11-18T11:39:31.537Z,0.40
2023-11-18T11:42:21.973Z,0.35
2023-11-18T11:45:21.357Z,0.50
2023-11-18T11:48:16.503Z,0.40
2023-11-18T11:51:15.547Z,0.50
2023-11-18T11:54:16.211Z,0.30
2023-11-18T11:57:07.016Z,0.40
2023-11-18T11:59:58.467Z,0.43
2023-11-18T12:02:56.066Z,0.50
2023-11-18T12:05:47.989Z,0.30
2023-11-18T12:08:38.563Z,0.50
2023-11-18T12:11:29.183Z,0.50
2023-11-18T12:14:39.032Z,0.50
2023-11-18T12:17:33.510Z,0.40
2023-11-18T12:20:43.087Z,0.40
2023-11-18T12:23:35.748Z,0.40
2023-11-18T12:26:44.806Z,0.38
2023-11-18T12:29:33.789Z,0.30
2023-11-18T12:32:55.362Z,0.38
2023-11-18T12:36:09.175Z,0.40
2023-11-18T12:39:24.864Z,0.50
2023-11-18T12:42:36.702Z,0.50
2023-11-18T12:45:45.888Z,0.50
2023-11-18T12:48:37.648Z,0.40
2023-11-18T12:51:25.665Z,0.40
2023-11-18T12:54:16.476Z,0.40
2023-11-18T12:57:07.777Z,0.40
2023-11-18T12:59:55.950Z,0.40
2023-11-18T13:02:44.090Z,0.32
2023-11-18T13:05:32.268Z,0.40
2023-11-18T13:08:23.666Z,0.50
2023-11-18T13:11:17.402Z,0.50
2023-11-18T13:14:06.018Z,0.50
2023-11-18T13:16:55.235Z,0.50
2023-11-18T13:19:43.848Z,0.63
2023-11-18T13:22:42.507Z,0.50
2023-11-18T13:25:34.110Z,0.50
2023-11-18T13:28:25.978Z,0.60
2023-11-18T13:31:17.586Z,0.50
2023-11-18T13:34:08.276Z,0.50
2023-11-18T13:36:56.757Z,0.50
2023-11-18T13:39:48.302Z,0.45
2023-11-18T13:42:38.730Z,0.40
2023-11-18T13:45:34.140Z,0.40
2023-11-18T13:48:26.285Z,0.60
2023-11-18T13:51:14.932Z,0.60
2023-11-18T13:54:03.522Z,0.50
2023-11-18T13:56:52.792Z,0.60
2023-11-18T13:59:44.263Z,0.47
2023-11-18T14:02:34.434Z,0.50
2023-11-18T14:05:25.329Z,0.50
2023-11-18T14:08:20.817Z,0.40
2023-11-18T14:11:15.274Z,0.40
2023-11-18T14:14:06.632Z,0.30
2023-11-18T14:16:58.602Z,0.30
2023-11-18T14:19:47.926Z,0.35
2023-11-18T14:22:37.699Z,0.30
2023-11-18T14:25:26.001Z,0.30
2023-11-18T14:28:14.085Z,0.30
2023-11-18T14:31:02.156Z,0.28
2023-11-18T14:33:50.436Z,0.40
2023-11-18T14:36:41.199Z,0.40
2023-11-18T14:39:29.244Z,0.40
2023-11-18T14:42:17.200Z,0.40
2023-11-18T14:45:05.661Z,0.38
2023-11-18T14:47:54.026Z,0.40
2023-11-18T14:50:42.497Z,0.20
2023-11-18T14:53:31.835Z,0.37
2023-11-18T14:56:19.943Z,0.50
2023-11-18T14:59:08.983Z,0.40
2023-11-18T15:01:58.727Z,0.30
2023-11-18T15:04:46.749Z,0.32
2023-11-18T15:07:34.750Z,0.50
2023-11-18T15:10:25.505Z,0.50
2023-11-18T15:13:16.524Z,0.50
2023-11-18T15:16:05.626Z,0.40
2023-11-18T15:18:54.153Z,0.45
2023-11-18T15:21:42.494Z,0.50
2023-11-18T15:24:30.441Z,0.52
2023-11-18T15:27:20.949Z,0.60
2023-11-18T15:30:12.104Z,0.50
2023-11-18T15:33:00.809Z,0.45
2023-11-18T15:35:48.817Z,0.40
2023-11-18T15:38:36.968Z,0.40
2023-11-18T15:41:25.232Z,0.40
2023-11-18T15:44:14.707Z,0.40
2023-11-18T15:47:02.929Z,0.47
2023-11-18T15:49:52.085Z,0.53
2023-11-18T15:52:40.606Z,0.45
2023-11-18T15:55:28.756Z,0.40
2023-11-18T15:58:17.360Z,0.40
2023-11-18T16:01:08.470Z,0.40
2023-11-18T16:03:56.968Z,0.50
2023-11-18T16:06:45.132Z,0.50
2023-11-18T16:09:33.250Z,0.50
2023-11-18T16:12:21.245Z,0.60
2023-11-18T16:15:11.426Z,0.50
2023-11-18T16:18:02.232Z,0.40
2023-11-18T16:20:50.494Z,0.40
2023-11-18T16:23:40.471Z,0.40
2023-11-18T16:26:28.525Z,0.40
2023-11-18T16:29:16.655Z,0.40
2023-11-18T16:32:05.290Z,0.40
2023-11-18T16:34:55.037Z,0.40
2023-11-18T16:37:44.353Z,0.50
2023-11-18T16:40:34.176Z,0.40
2023-11-18T16:43:22.295Z,0.30
2023-11-18T16:46:10.310Z,0.40
2023-11-18T16:48:58.397Z,0.30
2023-11-18T16:51:53.919Z,0.30
2023-11-18T16:54:43.968Z,0.35
2023-11-18T16:57:31.893Z,0.20
2023-11-18T17:00:23.883Z,0.40
2023-11-18T17:03:13.565Z,0.30
2023-11-18T17:06:01.653Z,0.40
2023-11-18T17:08:51.028Z,0.20
2023-11-18T17:11:39.186Z,0.30
2023-11-18T17:14:27.183Z,0.40
2023-11-18T17:17:15.818Z,0.30
2023-11-18T17:20:09.840Z,0.30
2023-11-18T17:22:57.857Z,0.30
2023-11-18T17:25:47.211Z,0.30
2023-11-18T17:28:35.850Z,0.40
2023-11-18T17:31:25.982Z,0.30
2023-11-18T17:34:14.183Z,0.30
2023-11-18T17:37:02.244Z,0.30
2023-11-18T17:39:50.298Z,0.30
2023-11-18T17:42:40.563Z,0.30
2023-11-18T17:45:28.781Z,0.22
2023-11-18T17:48:16.910Z,0.20
2023-11-18T17:51:05.399Z,0.30
2023-11-18T17:53:53.584Z,0.25
2023-11-18T17:56:42.462Z,0.40
2023-11-18T17:59:31.782Z,0.20
2023-11-18T18:02:19.905Z,0.30
2023-11-18T18:05:09.068Z,0.30
2023-11-18T18:07:57.685Z,0.20
2023-11-18T18:10:45.710Z,0.20
2023-11-18T18:13:33.789Z,0.20
2023-11-18T18:16:23.194Z,0.20
2023-11-18T18:19:11.521Z,0.30
2023-11-18T18:21:59.623Z,0.20
2023-11-18T18:24:47.804Z,0.20
2023-11-18T18:27:35.907Z,0.30
2023-11-18T18:30:23.869Z,0.30
2023-11-18T18:33:13.235Z,0.40
2023-11-18T18:36:01.263Z,0.30
2023-11-18T18:38:50.643Z,0.30
2023-11-18T18:41:39.366Z,0.30
2023-11-18T18:44:28.001Z,0.30
2023-11-18T18:47:16.263Z,0.30
2023-11-18T18:50:08.495Z,0.30
2023-11-18T18:52:56.583Z,0.20
2023-11-18T18:55:45.121Z,0.20
2023-11-18T18:58:34.067Z,0.20
2023-11-18T19:01:23.554Z,0.20
2023-11-18T19:04:14.979Z,0.20
2023-11-18T19:07:04.798Z,0.20
2023-11-18T19:09:52.846Z,0.20
2023-11-18T19:12:41.222Z,0.22
2023-11-18T19:15:29.527Z,0.30
2023-11-18T19:18:17.553Z,0.20
2023-11-18T19:21:06.280Z,0.30
2023-11-18T19:23:55.674Z,0.20
2023-11-18T19:26:43.629Z,0.20
2023-11-18T19:29:31.656Z,0.20
2023-11-18T19:32:19.698Z,0.10
2023-11-18T19:35:08.916Z,0.30
2023-11-18T19:37:56.937Z,0.22
2023-11-18T19:40:46.538Z,0.40
2023-11-18T19:43:34.762Z,0.30
2023-11-18T19:46:22.747Z,0.30
2023-11-18T19:49:11.818Z,0.30
2023-11-18T19:51:59.864Z,0.40
2023-11-18T19:54:47.969Z,0.30
2023-11-18T19:57:37.387Z,0.30
2023-11-18T20:00:27.589Z,0.22
2023-11-18T20:03:16.521Z,0.20
2023-11-18T20:06:05.169Z,0.38
2023-11-18T20:08:53.164Z,0.25
2023-11-18T20:11:49.714Z,0.25
2023-11-18T20:14:39.114Z,0.28
2023-11-18T20:17:27.223Z,0.30
2023-11-18T20:20:15.617Z,0.30
2023-11-18T20:23:04.763Z,0.30
2023-11-18T20:25:52.825Z,0.20
2023-11-18T20:28:40.795Z,0.20
2023-11-18T20:31:30.112Z,0.30
2023-11-18T20:34:19.089Z,0.30
2023-11-18T20:37:07.655Z,0.30
2023-11-18T20:39:57.964Z,0.40
2023-11-18T20:42:46.364Z,0.30
2023-11-18T20:45:34.399Z,0.30
2023-11-18T20:48:23.818Z,0.20
2023-11-18T20:51:11.925Z,0.20
2023-11-18T20:54:00.491Z,0.30
2023-11-18T20:56:48.404Z,0.30
2023-11-18T20:59:36.395Z,0.30
2023-11-18T21:02:24.422Z,0.30
2023-11-18T21:05:14.215Z,0.20
2023-11-18T21:08:02.361Z,0.30
2023-11-18T21:10:50.593Z,0.10
2023-11-18T21:13:39.516Z,0.30
2023-11-18T21:16:27.594Z,0.30
2023-11-18T21:19:15.629Z,0.40
2023-11-18T21:22:05.338Z,0.30
2023-11-18T21:24:54.479Z,0.40
2023-11-18T21:27:44.988Z,0.30
2023-11-18T21:30:33.461Z,0.20
2023-11-18T21:33:22.343Z,0.30
2023-11-18T21:36:10.957Z,0.30
2023-11-18T21:39:00.282Z,0.30
2023-11-18T21:41:48.264Z,0.30
2023-11-18T21:44:37.276Z,0.30
2023-11-18T21:47:26.492Z,0.20
2023-11-18T21:50:15.964Z,0.25
2023-11-18T21:53:04.180Z,0.40
2023-11-18T21:55:55.426Z,0.33
2023-11-18T21:58:43.602Z,0.35
2023-11-18T22:01:32.209Z,0.30
2023-11-18T22:04:21.292Z,0.30
2023-11-18T22:07:12.310Z,0.38
2023-11-18T22:10:00.341Z,0.30
2023-11-18T22:12:52.759Z,0.25
2023-11-18T22:15:41.673Z,0.20
2023-11-18T22:18:29.738Z,0.20
2023-11-18T22:21:17.848Z,0.20
2023-11-18T22:24:10.324Z,0.20
2023-11-18T22:26:58.324Z,0.30
2023-11-18T22:29:50.291Z,0.30
2023-11-18T22:32:38.816Z,0.30
2023-11-18T22:35:28.188Z,0.40
2023-11-18T22:38:16.854Z,0.30
2023-11-18T22:41:05.369Z,0.28
2023-11-18T22:43:54.357Z,0.20
2023-11-18T22:46:44.958Z,0.40
2023-11-18T22:49:34.978Z,0.30
2023-11-18T22:52:23.003Z,0.30
2023-11-18T22:58:03.524Z,0.30
2023-11-18T23:00:53.016Z,0.30
2023-11-18T23:03:42.434Z,0.30
2023-11-18T23:06:30.689Z,0.30
2023-11-18T23:09:18.657Z,0.30
2023-11-18T23:12:07.822Z,0.30
2023-11-18T23:14:55.823Z,0.22
2023-11-18T23:17:44.030Z,0.30
2023-11-18T23:20:33.794Z,0.30
2023-11-18T23:23:21.766Z,0.20
2023-11-18T23:26:10.010Z,0.30
2023-11-18T23:28:58.286Z,0.40
2023-11-18T23:31:46.319Z,0.30
2023-11-18T23:34:34.573Z,0.30
2023-11-18T23:37:25.592Z,0.30
2023-11-18T23:40:14.618Z,0.30
2023-11-18T23:43:03.099Z,0.40
2023-11-18T23:45:51.269Z,0.30
2023-11-18T23:48:40.311Z,0.40
2023-11-18T23:51:29.283Z,0.30
2023-11-18T23:54:18.666Z,0.30
2023-11-18T23:57:07.092Z,0.30
2023-11-18T23:59:55.413Z,0.20
